sensor_id;sensor_type;location;lat;lon;timestamp;P1;durP1;ratioP1;P2;durP2;ratioP2
4278;SDS011;2153;47.744;10.580;2024-02-15T00:00:51;15.67;;;4.00;;
4278;SDS011;2153;47.744;10.580;2024-02-15T00:03:18;15.17;;;3.80;;
4278;SDS011;2153;47.744;10.580;2024-02-15T00:05:45;13.87;;;3.90;;
4278;SDS011;2153;47.744;10.580;2024-02-15T00:08:12;15.40;;;3.23;;
4278;SDS011;2153;47.744;10.580;2024-02-15T00:10:41;12.83;;;3.00;;
4278;SDS011;2153;47.744;10.580;2024-02-15T00:13:11;14.40;;;3.53;;
4278;SDS011;2153;47.744;10.580;2024-02-15T00:15:38;13.57;;;3.13;;
4278;SDS011;2153;47.744;10.580;2024-02-15T00:18:05;11.97;;;2.43;;
4278;SDS011;2153;47.744;10.580;2024-02-15T00:20:33;13.40;;;3.17;;
4278;SDS011;2153;47.744;10.580;2024-02-15T00:23:00;14.47;;;3.40;;
4278;SDS011;2153;47.744;10.580;2024-02-15T00:25:27;14.57;;;2.70;;
4278;SDS011;2153;47.744;10.580;2024-02-15T00:27:56;14.57;;;2.40;;
4278;SDS011;2153;47.744;10.580;2024-02-15T00:30:25;12.17;;;2.63;;
4278;SDS011;2153;47.744;10.580;2024-02-15T00:32:52;15.27;;;3.27;;
4278;SDS011;2153;47.744;10.580;2024-02-15T00:35:20;12.50;;;3.23;;
4278;SDS011;2153;47.744;10.580;2024-02-15T00:37:47;13.50;;;3.37;;
4278;SDS011;2153;47.744;10.580;2024-02-15T00:40:14;14.57;;;3.27;;
4278;SDS011;2153;47.744;10.580;2024-02-15T00:42:42;13.07;;;3.20;;
4278;SDS011;2153;47.744;10.580;2024-02-15T00:45:10;13.57;;;3.00;;
4278;SDS011;2153;47.744;10.580;2024-02-15T00:47:37;12.70;;;2.57;;
4278;SDS011;2153;47.744;10.580;2024-02-15T00:50:07;12.03;;;2.47;;
4278;SDS011;2153;47.744;10.580;2024-02-15T00:52:34;11.47;;;2.37;;
4278;SDS011;2153;47.744;10.580;2024-02-15T00:55:01;13.30;;;2.20;;
4278;SDS011;2153;47.744;10.580;2024-02-15T00:57:28;12.00;;;2.40;;
4278;SDS011;2153;47.744;10.580;2024-02-15T00:59:55;11.63;;;1.90;;
4278;SDS011;2153;47.744;10.580;2024-02-15T01:02:23;14.03;;;2.13;;
4278;SDS011;2153;47.744;10.580;2024-02-15T01:04:50;14.13;;;2.30;;
4278;SDS011;2153;47.744;10.580;2024-02-15T01:07:18;10.90;;;2.10;;
4278;SDS011;2153;47.744;10.580;2024-02-15T01:09:45;16.20;;;3.00;;
4278;SDS011;2153;47.744;10.580;2024-02-15T01:12:12;11.90;;;2.50;;
4278;SDS011;2153;47.744;10.580;2024-02-15T01:14:39;11.73;;;2.13;;
4278;SDS011;2153;47.744;10.580;2024-02-15T01:17:08;12.60;;;2.30;;
4278;SDS011;2153;47.744;10.580;2024-02-15T01:19:37;12.83;;;2.93;;
4278;SDS011;2153;47.744;10.580;2024-02-15T01:22:04;17.77;;;2.80;;
4278;SDS011;2153;47.744;10.580;2024-02-15T01:24:31;13.43;;;3.60;;
4278;SDS011;2153;47.744;10.580;2024-02-15T01:26:58;12.37;;;2.43;;
4278;SDS011;2153;47.744;10.580;2024-02-15T01:29:26;11.60;;;2.53;;
4278;SDS011;2153;47.744;10.580;2024-02-15T01:31:53;13.20;;;2.53;;
4278;SDS011;2153;47.744;10.580;2024-02-15T01:34:20;14.17;;;2.60;;
4278;SDS011;2153;47.744;10.580;2024-02-15T01:36:49;12.90;;;2.43;;
4278;SDS011;2153;47.744;10.580;2024-02-15T01:39:16;11.80;;;2.20;;
4278;SDS011;2153;47.744;10.580;2024-02-15T01:41:46;12.00;;;2.30;;
4278;SDS011;2153;47.744;10.580;2024-02-15T01:44:15;12.67;;;2.70;;
4278;SDS011;2153;47.744;10.580;2024-02-15T01:46:43;11.57;;;2.13;;
4278;SDS011;2153;47.744;10.580;2024-02-15T01:49:12;12.23;;;2.90;;
4278;SDS011;2153;47.744;10.580;2024-02-15T01:51:40;12.50;;;2.80;;
4278;SDS011;2153;47.744;10.580;2024-02-15T01:54:09;12.03;;;2.50;;
4278;SDS011;2153;47.744;10.580;2024-02-15T01:56:37;12.60;;;2.47;;
4278;SDS011;2153;47.744;10.580;2024-02-15T01:59:04;12.60;;;2.23;;
4278;SDS011;2153;47.744;10.580;2024-02-15T02:01:32;12.70;;;2.03;;
4278;SDS011;2153;47.744;10.580;2024-02-15T02:03:59;12.23;;;2.60;;
4278;SDS011;2153;47.744;10.580;2024-02-15T02:06:26;12.33;;;2.03;;
4278;SDS011;2153;47.744;10.580;2024-02-15T02:08:54;11.77;;;2.20;;
4278;SDS011;2153;47.744;10.580;2024-02-15T02:11:23;11.63;;;2.20;;
4278;SDS011;2153;47.744;10.580;2024-02-15T02:13:50;11.50;;;2.23;;
4278;SDS011;2153;47.744;10.580;2024-02-15T02:16:24;12.20;;;2.10;;
4278;SDS011;2153;47.744;10.580;2024-02-15T02:18:52;11.93;;;2.17;;
4278;SDS011;2153;47.744;10.580;2024-02-15T02:21:19;11.73;;;1.93;;
4278;SDS011;2153;47.744;10.580;2024-02-15T02:23:46;11.70;;;1.90;;
4278;SDS011;2153;47.744;10.580;2024-02-15T02:26:18;16.57;;;2.00;;
4278;SDS011;2153;47.744;10.580;2024-02-15T02:28:46;11.10;;;1.80;;
4278;SDS011;2153;47.744;10.580;2024-02-15T02:31:13;11.43;;;2.07;;
4278;SDS011;2153;47.744;10.580;2024-02-15T02:33:40;10.93;;;1.60;;
4278;SDS011;2153;47.744;10.580;2024-02-15T02:36:08;10.93;;;1.80;;
4278;SDS011;2153;47.744;10.580;2024-02-15T02:38:37;12.93;;;2.37;;
4278;SDS011;2153;47.744;10.580;2024-02-15T02:41:05;12.03;;;2.50;;
4278;SDS011;2153;47.744;10.580;2024-02-15T02:43:33;12.17;;;2.37;;
4278;SDS011;2153;47.744;10.580;2024-02-15T02:46:00;10.83;;;1.93;;
4278;SDS011;2153;47.744;10.580;2024-02-15T02:48:29;12.63;;;2.20;;
4278;SDS011;2153;47.744;10.580;2024-02-15T02:50:56;12.93;;;2.43;;
4278;SDS011;2153;47.744;10.580;2024-02-15T02:53:23;12.33;;;2.10;;
4278;SDS011;2153;47.744;10.580;2024-02-15T02:55:51;12.13;;;2.10;;
4278;SDS011;2153;47.744;10.580;2024-02-15T02:58:18;13.63;;;2.07;;
4278;SDS011;2153;47.744;10.580;2024-02-15T03:00:47;10.80;;;1.97;;
4278;SDS011;2153;47.744;10.580;2024-02-15T03:03:14;10.97;;;1.87;;
4278;SDS011;2153;47.744;10.580;2024-02-15T03:05:41;11.57;;;2.20;;
4278;SDS011;2153;47.744;10.580;2024-02-15T03:08:09;17.03;;;2.37;;
4278;SDS011;2153;47.744;10.580;2024-02-15T03:10:37;12.10;;;1.90;;
4278;SDS011;2153;47.744;10.580;2024-02-15T03:13:05;16.10;;;2.10;;
4278;SDS011;2153;47.744;10.580;2024-02-15T03:15:33;12.00;;;1.90;;
4278;SDS011;2153;47.744;10.580;2024-02-15T03:18:02;11.90;;;2.27;;
4278;SDS011;2153;47.744;10.580;2024-02-15T03:20:31;13.40;;;1.90;;
4278;SDS011;2153;47.744;10.580;2024-02-15T03:22:59;11.50;;;1.80;;
4278;SDS011;2153;47.744;10.580;2024-02-15T03:25:27;11.40;;;2.00;;
4278;SDS011;2153;47.744;10.580;2024-02-15T03:27:55;11.63;;;2.20;;
4278;SDS011;2153;47.744;10.580;2024-02-15T03:30:23;10.67;;;1.83;;
4278;SDS011;2153;47.744;10.580;2024-02-15T03:32:50;10.73;;;2.03;;
4278;SDS011;2153;47.744;10.580;2024-02-15T03:35:19;11.27;;;1.67;;
4278;SDS011;2153;47.744;10.580;2024-02-15T03:37:47;11.03;;;2.13;;
4278;SDS011;2153;47.744;10.580;2024-02-15T03:40:16;10.83;;;1.97;;
4278;SDS011;2153;47.744;10.580;2024-02-15T03:42:43;13.23;;;2.43;;
4278;SDS011;2153;47.744;10.580;2024-02-15T03:45:10;13.30;;;1.90;;
4278;SDS011;2153;47.744;10.580;2024-02-15T03:47:37;10.83;;;1.83;;
4278;SDS011;2153;47.744;10.580;2024-02-15T03:50:05;11.63;;;2.00;;
4278;SDS011;2153;47.744;10.580;2024-02-15T03:52:32;11.83;;;2.07;;
4278;SDS011;2153;47.744;10.580;2024-02-15T03:55:00;13.30;;;1.97;;
4278;SDS011;2153;47.744;10.580;2024-02-15T03:57:27;11.00;;;2.03;;
4278;SDS011;2153;47.744;10.580;2024-02-15T03:59:54;11.47;;;1.73;;
4278;SDS011;2153;47.744;10.580;2024-02-15T04:02:23;10.90;;;1.77;;
4278;SDS011;2153;47.744;10.580;2024-02-15T04:04:51;11.40;;;1.80;;
4278;SDS011;2153;47.744;10.580;2024-02-15T04:07:20;12.10;;;2.23;;
4278;SDS011;2153;47.744;10.580;2024-02-15T04:09:48;11.37;;;1.90;;
4278;SDS011;2153;47.744;10.580;2024-02-15T04:12:15;12.53;;;2.17;;
4278;SDS011;2153;47.744;10.580;2024-02-15T04:14:42;11.20;;;2.23;;
4278;SDS011;2153;47.744;10.580;2024-02-15T04:17:10;12.13;;;2.70;;
4278;SDS011;2153;47.744;10.580;2024-02-15T04:19:39;11.77;;;2.03;;
4278;SDS011;2153;47.744;10.580;2024-02-15T04:22:06;13.13;;;2.10;;
4278;SDS011;2153;47.744;10.580;2024-02-15T04:24:33;12.50;;;1.97;;
4278;SDS011;2153;47.744;10.580;2024-02-15T04:27:06;11.50;;;1.90;;
4278;SDS011;2153;47.744;10.580;2024-02-15T04:29:37;13.37;;;1.70;;
4278;SDS011;2153;47.744;10.580;2024-02-15T04:32:06;10.37;;;1.53;;
4278;SDS011;2153;47.744;10.580;2024-02-15T04:34:35;11.20;;;1.50;;
4278;SDS011;2153;47.744;10.580;2024-02-15T04:37:02;10.60;;;1.80;;
4278;SDS011;2153;47.744;10.580;2024-02-15T04:39:32;11.83;;;1.50;;
4278;SDS011;2153;47.744;10.580;2024-02-15T04:42:00;10.40;;;1.50;;
4278;SDS011;2153;47.744;10.580;2024-02-15T04:44:29;11.30;;;2.00;;
4278;SDS011;2153;47.744;10.580;2024-02-15T04:47:00;10.77;;;1.80;;
4278;SDS011;2153;47.744;10.580;2024-02-15T04:49:27;10.73;;;1.87;;
4278;SDS011;2153;47.744;10.580;2024-02-15T04:51:55;11.90;;;1.73;;
4278;SDS011;2153;47.744;10.580;2024-02-15T04:54:22;14.27;;;1.93;;
4278;SDS011;2153;47.744;10.580;2024-02-15T04:56:49;10.70;;;1.80;;
4278;SDS011;2153;47.744;10.580;2024-02-15T04:59:19;10.27;;;1.57;;
4278;SDS011;2153;47.744;10.580;2024-02-15T05:01:52;11.20;;;2.20;;
4278;SDS011;2153;47.744;10.580;2024-02-15T05:04:19;10.77;;;2.10;;
4278;SDS011;2153;47.744;10.580;2024-02-15T05:06:46;12.77;;;2.47;;
4278;SDS011;2153;47.744;10.580;2024-02-15T05:09:13;10.70;;;2.10;;
4278;SDS011;2153;47.744;10.580;2024-02-15T05:11:43;13.40;;;1.83;;
4278;SDS011;2153;47.744;10.580;2024-02-15T05:14:13;10.80;;;1.83;;
4278;SDS011;2153;47.744;10.580;2024-02-15T05:16:44;10.70;;;1.77;;
4278;SDS011;2153;47.744;10.580;2024-02-15T05:19:14;11.93;;;1.93;;
4278;SDS011;2153;47.744;10.580;2024-02-15T05:21:41;10.60;;;1.73;;
4278;SDS011;2153;47.744;10.580;2024-02-15T05:24:10;10.30;;;1.67;;
4278;SDS011;2153;47.744;10.580;2024-02-15T05:26:38;10.20;;;1.80;;
4278;SDS011;2153;47.744;10.580;2024-02-15T05:29:07;10.97;;;1.90;;
4278;SDS011;2153;47.744;10.580;2024-02-15T05:31:34;11.40;;;1.70;;
4278;SDS011;2153;47.744;10.580;2024-02-15T05:34:03;10.37;;;1.80;;
4278;SDS011;2153;47.744;10.580;2024-02-15T05:36:31;11.53;;;1.93;;
4278;SDS011;2153;47.744;10.580;2024-02-15T05:38:59;9.80;;;1.60;;
4278;SDS011;2153;47.744;10.580;2024-02-15T05:41:27;10.73;;;1.87;;
4278;SDS011;2153;47.744;10.580;2024-02-15T05:43:54;10.50;;;1.80;;
4278;SDS011;2153;47.744;10.580;2024-02-15T05:46:23;10.63;;;1.90;;
4278;SDS011;2153;47.744;10.580;2024-02-15T05:48:50;10.27;;;1.80;;
4278;SDS011;2153;47.744;10.580;2024-02-15T05:51:17;11.10;;;2.00;;
4278;SDS011;2153;47.744;10.580;2024-02-15T05:53:46;10.50;;;1.40;;
4278;SDS011;2153;47.744;10.580;2024-02-15T05:56:14;18.13;;;2.03;;
4278;SDS011;2153;47.744;10.580;2024-02-15T05:58:41;11.10;;;2.10;;
4278;SDS011;2153;47.744;10.580;2024-02-15T06:01:08;11.00;;;1.87;;
4278;SDS011;2153;47.744;10.580;2024-02-15T06:03:38;11.93;;;1.97;;
4278;SDS011;2153;47.744;10.580;2024-02-15T06:06:06;11.50;;;2.10;;
4278;SDS011;2153;47.744;10.580;2024-02-15T06:08:32;12.40;;;1.80;;
4278;SDS011;2153;47.744;10.580;2024-02-15T06:11:01;10.00;;;1.50;;
4278;SDS011;2153;47.744;10.580;2024-02-15T06:13:28;13.23;;;1.70;;
4278;SDS011;2153;47.744;10.580;2024-02-15T06:15:55;19.10;;;2.20;;
4278;SDS011;2153;47.744;10.580;2024-02-15T06:18:23;9.60;;;1.50;;
4278;SDS011;2153;47.744;10.580;2024-02-15T06:20:51;14.03;;;2.03;;
4278;SDS011;2153;47.744;10.580;2024-02-15T06:23:18;10.97;;;2.07;;
4278;SDS011;2153;47.744;10.580;2024-02-15T06:25:46;10.70;;;1.50;;
4278;SDS011;2153;47.744;10.580;2024-02-15T06:28:14;9.97;;;1.80;;
4278;SDS011;2153;47.744;10.580;2024-02-15T06:31:05;10.77;;;2.00;;
4278;SDS011;2153;47.744;10.580;2024-02-15T06:33:50;10.07;;;1.80;;
4278;SDS011;2153;47.744;10.580;2024-02-15T06:36:38;10.30;;;1.63;;
4278;SDS011;2153;47.744;10.580;2024-02-15T06:39:23;10.90;;;2.30;;
4278;SDS011;2153;47.744;10.580;2024-02-15T06:42:06;9.83;;;1.60;;
4278;SDS011;2153;47.744;10.580;2024-02-15T06:44:35;10.00;;;1.87;;
4278;SDS011;2153;47.744;10.580;2024-02-15T06:47:02;14.90;;;1.90;;
4278;SDS011;2153;47.744;10.580;2024-02-15T06:49:29;10.37;;;2.10;;
4278;SDS011;2153;47.744;10.580;2024-02-15T06:51:56;11.40;;;2.27;;
4278;SDS011;2153;47.744;10.580;2024-02-15T06:54:24;10.47;;;1.87;;
4278;SDS011;2153;47.744;10.580;2024-02-15T06:56:51;11.80;;;2.27;;
4278;SDS011;2153;47.744;10.580;2024-02-15T06:59:19;12.97;;;2.10;;
4278;SDS011;2153;47.744;10.580;2024-02-15T07:01:48;12.50;;;2.40;;
4278;SDS011;2153;47.744;10.580;2024-02-15T07:04:17;14.00;;;2.47;;
4278;SDS011;2153;47.744;10.580;2024-02-15T07:06:44;14.07;;;2.97;;
4278;SDS011;2153;47.744;10.580;2024-02-15T07:09:13;12.00;;;2.27;;
4278;SDS011;2153;47.744;10.580;2024-02-15T07:11:42;11.30;;;2.33;;
4278;SDS011;2153;47.744;10.580;2024-02-15T07:14:11;11.47;;;2.53;;
4278;SDS011;2153;47.744;10.580;2024-02-15T07:16:38;11.10;;;2.30;;
4278;SDS011;2153;47.744;10.580;2024-02-15T07:19:06;14.63;;;3.20;;
4278;SDS011;2153;47.744;10.580;2024-02-15T07:21:34;15.27;;;2.70;;
4278;SDS011;2153;47.744;10.580;2024-02-15T07:24:02;12.27;;;2.37;;
4278;SDS011;2153;47.744;10.580;2024-02-15T07:26:29;12.50;;;2.73;;
4278;SDS011;2153;47.744;10.580;2024-02-15T07:28:59;17.27;;;2.90;;
4278;SDS011;2153;47.744;10.580;2024-02-15T07:31:27;13.33;;;3.00;;
4278;SDS011;2153;47.744;10.580;2024-02-15T07:33:55;16.17;;;4.13;;
4278;SDS011;2153;47.744;10.580;2024-02-15T07:36:23;12.50;;;2.43;;
4278;SDS011;2153;47.744;10.580;2024-02-15T07:38:52;11.40;;;2.40;;
4278;SDS011;2153;47.744;10.580;2024-02-15T07:41:22;12.80;;;2.13;;
4278;SDS011;2153;47.744;10.580;2024-02-15T07:43:50;12.30;;;2.10;;
4278;SDS011;2153;47.744;10.580;2024-02-15T07:46:19;12.33;;;2.77;;
4278;SDS011;2153;47.744;10.580;2024-02-15T07:48:46;14.00;;;2.97;;
4278;SDS011;2153;47.744;10.580;2024-02-15T07:51:14;13.80;;;3.10;;
4278;SDS011;2153;47.744;10.580;2024-02-15T07:53:42;13.00;;;2.53;;
4278;SDS011;2153;47.744;10.580;2024-02-15T07:56:09;13.67;;;2.50;;
4278;SDS011;2153;47.744;10.580;2024-02-15T07:58:38;14.10;;;2.70;;
4278;SDS011;2153;47.744;10.580;2024-02-15T08:01:06;13.87;;;2.60;;
4278;SDS011;2153;47.744;10.580;2024-02-15T08:03:34;14.90;;;2.50;;
4278;SDS011;2153;47.744;10.580;2024-02-15T08:06:01;12.77;;;2.27;;
4278;SDS011;2153;47.744;10.580;2024-02-15T08:08:31;12.93;;;2.60;;
4278;SDS011;2153;47.744;10.580;2024-02-15T08:11:00;13.23;;;3.00;;
4278;SDS011;2153;47.744;10.580;2024-02-15T08:13:28;11.90;;;2.00;;
4278;SDS011;2153;47.744;10.580;2024-02-15T08:15:55;12.70;;;2.47;;
4278;SDS011;2153;47.744;10.580;2024-02-15T08:18:22;12.10;;;1.80;;
4278;SDS011;2153;47.744;10.580;2024-02-15T08:20:49;12.67;;;2.50;;
4278;SDS011;2153;47.744;10.580;2024-02-15T08:23:17;14.40;;;2.73;;
4278;SDS011;2153;47.744;10.580;2024-02-15T08:25:44;12.40;;;2.30;;
4278;SDS011;2153;47.744;10.580;2024-02-15T08:28:12;13.40;;;2.13;;
4278;SDS011;2153;47.744;10.580;2024-02-15T08:30:40;13.23;;;2.37;;
4278;SDS011;2153;47.744;10.580;2024-02-15T08:33:07;12.90;;;2.20;;
4278;SDS011;2153;47.744;10.580;2024-02-15T08:35:35;14.03;;;2.67;;
4278;SDS011;2153;47.744;10.580;2024-02-15T08:38:05;16.10;;;2.40;;
4278;SDS011;2153;47.744;10.580;2024-02-15T08:40:32;14.90;;;2.50;;
4278;SDS011;2153;47.744;10.580;2024-02-15T08:43:00;18.90;;;4.40;;
4278;SDS011;2153;47.744;10.580;2024-02-15T08:45:28;20.27;;;5.20;;
4278;SDS011;2153;47.744;10.580;2024-02-15T08:47:56;18.23;;;4.50;;
4278;SDS011;2153;47.744;10.580;2024-02-15T08:50:23;16.43;;;2.70;;
4278;SDS011;2153;47.744;10.580;2024-02-15T08:52:50;14.73;;;2.07;;
4278;SDS011;2153;47.744;10.580;2024-02-15T08:55:17;15.47;;;2.90;;
4278;SDS011;2153;47.744;10.580;2024-02-15T08:57:48;14.33;;;2.30;;
4278;SDS011;2153;47.744;10.580;2024-02-15T09:00:15;15.00;;;2.07;;
4278;SDS011;2153;47.744;10.580;2024-02-15T09:02:44;12.93;;;1.67;;
4278;SDS011;2153;47.744;10.580;2024-02-15T09:05:11;13.20;;;1.57;;
4278;SDS011;2153;47.744;10.580;2024-02-15T09:07:39;17.20;;;2.63;;
4278;SDS011;2153;47.744;10.580;2024-02-15T09:10:08;13.60;;;1.35;;
4278;SDS011;2153;47.744;10.580;2024-02-15T09:12:35;13.00;;;1.37;;
4278;SDS011;2153;47.744;10.580;2024-02-15T09:15:04;12.70;;;1.23;;
4278;SDS011;2153;47.744;10.580;2024-02-15T09:17:32;13.60;;;1.50;;
4278;SDS011;2153;47.744;10.580;2024-02-15T09:20:05;12.90;;;1.10;;
4278;SDS011;2153;47.744;10.580;2024-02-15T11:10:32;13.53;;;1.50;;
4278;SDS011;2153;47.744;10.580;2024-02-15T11:13:00;12.90;;;1.47;;
4278;SDS011;2153;47.744;10.580;2024-02-15T11:15:39;13.23;;;1.57;;
4278;SDS011;2153;47.744;10.580;2024-02-15T11:18:10;13.13;;;1.40;;
4278;SDS011;2153;47.744;10.580;2024-02-15T11:20:46;13.33;;;1.37;;
4278;SDS011;2153;47.744;10.580;2024-02-15T11:23:27;12.23;;;1.00;;
4278;SDS011;2153;47.744;10.580;2024-02-15T11:25:56;12.37;;;1.00;;
4278;SDS011;2153;47.744;10.580;2024-02-15T11:28:38;12.70;;;1.30;;
4278;SDS011;2153;47.744;10.580;2024-02-15T11:31:06;13.33;;;1.47;;
4278;SDS011;2153;47.744;10.580;2024-02-15T11:33:34;12.33;;;1.10;;
4278;SDS011;2153;47.744;10.580;2024-02-15T11:36:02;12.20;;;1.03;;
4278;SDS011;2153;47.744;10.580;2024-02-15T11:38:30;12.50;;;1.03;;
4278;SDS011;2153;47.744;10.580;2024-02-15T11:41:01;12.57;;;1.40;;
4278;SDS011;2153;47.744;10.580;2024-02-15T11:43:49;17.93;;;1.20;;
4278;SDS011;2153;47.744;10.580;2024-02-15T11:46:21;12.90;;;1.27;;
4278;SDS011;2153;47.744;10.580;2024-02-15T11:48:50;12.83;;;0.90;;
4278;SDS011;2153;47.744;10.580;2024-02-15T11:51:26;13.27;;;1.37;;
4278;SDS011;2153;47.744;10.580;2024-02-15T11:54:03;12.57;;;1.27;;
4278;SDS011;2153;47.744;10.580;2024-02-15T11:56:33;13.23;;;1.33;;
4278;SDS011;2153;47.744;10.580;2024-02-15T11:59:17;13.97;;;1.40;;
4278;SDS011;2153;47.744;10.580;2024-02-15T12:01:54;12.63;;;1.10;;
4278;SDS011;2153;47.744;10.580;2024-02-15T12:04:38;13.53;;;1.40;;
4278;SDS011;2153;47.744;10.580;2024-02-15T12:07:23;12.87;;;1.27;;
4278;SDS011;2153;47.744;10.580;2024-02-15T12:10:14;12.57;;;1.20;;
4278;SDS011;2153;47.744;10.580;2024-02-15T12:13:00;12.40;;;1.10;;
4278;SDS011;2153;47.744;10.580;2024-02-15T12:15:56;13.17;;;1.37;;
4278;SDS011;2153;47.744;10.580;2024-02-15T12:18:41;12.60;;;0.93;;
4278;SDS011;2153;47.744;10.580;2024-02-15T12:21:08;12.67;;;1.10;;
4278;SDS011;2153;47.744;10.580;2024-02-15T12:23:37;13.60;;;1.13;;
4278;SDS011;2153;47.744;10.580;2024-02-15T12:26:06;13.37;;;1.13;;
4278;SDS011;2153;47.744;10.580;2024-02-15T12:28:35;13.50;;;1.50;;
4278;SDS011;2153;47.744;10.580;2024-02-15T12:31:03;12.23;;;1.27;;
4278;SDS011;2153;47.744;10.580;2024-02-15T12:33:33;14.60;;;2.10;;
4278;SDS011;2153;47.744;10.580;2024-02-15T12:36:03;12.43;;;1.20;;
4278;SDS011;2153;47.744;10.580;2024-02-15T12:38:31;13.00;;;1.37;;
4278;SDS011;2153;47.744;10.580;2024-02-15T12:40:59;13.17;;;1.10;;
4278;SDS011;2153;47.744;10.580;2024-02-15T12:43:27;12.87;;;1.20;;
4278;SDS011;2153;47.744;10.580;2024-02-15T12:45:55;12.97;;;1.53;;
4278;SDS011;2153;47.744;10.580;2024-02-15T12:48:22;13.67;;;1.50;;
4278;SDS011;2153;47.744;10.580;2024-02-15T12:50:50;12.70;;;1.40;;
4278;SDS011;2153;47.744;10.580;2024-02-15T12:53:20;13.40;;;1.50;;
4278;SDS011;2153;47.744;10.580;2024-02-15T12:55:52;13.23;;;1.50;;
4278;SDS011;2153;47.744;10.580;2024-02-15T12:58:19;13.40;;;1.37;;
4278;SDS011;2153;47.744;10.580;2024-02-15T13:00:49;12.70;;;1.53;;
4278;SDS011;2153;47.744;10.580;2024-02-15T13:03:17;15.90;;;1.80;;
4278;SDS011;2153;47.744;10.580;2024-02-15T13:05:45;15.20;;;1.93;;
4278;SDS011;2153;47.744;10.580;2024-02-15T13:08:13;16.80;;;1.73;;
4278;SDS011;2153;47.744;10.580;2024-02-15T13:10:43;16.97;;;2.20;;
4278;SDS011;2153;47.744;10.580;2024-02-15T13:13:10;14.70;;;2.20;;
4278;SDS011;2153;47.744;10.580;2024-02-15T13:15:39;14.63;;;2.13;;
4278;SDS011;2153;47.744;10.580;2024-02-15T13:18:06;14.87;;;2.43;;
4278;SDS011;2153;47.744;10.580;2024-02-15T13:20:37;15.50;;;2.33;;
4278;SDS011;2153;47.744;10.580;2024-02-15T13:23:04;16.00;;;2.70;;
4278;SDS011;2153;47.744;10.580;2024-02-15T13:25:34;16.30;;;2.60;;
4278;SDS011;2153;47.744;10.580;2024-02-15T13:28:02;15.50;;;2.93;;
4278;SDS011;2153;47.744;10.580;2024-02-15T13:30:30;16.90;;;3.17;;
4278;SDS011;2153;47.744;10.580;2024-02-15T13:32:57;16.53;;;3.00;;
4278;SDS011;2153;47.744;10.580;2024-02-15T13:35:24;20.47;;;3.07;;
4278;SDS011;2153;47.744;10.580;2024-02-15T13:37:53;15.13;;;2.63;;
4278;SDS011;2153;47.744;10.580;2024-02-15T13:40:23;16.70;;;3.00;;
4278;SDS011;2153;47.744;10.580;2024-02-15T13:42:51;16.40;;;3.93;;
4278;SDS011;2153;47.744;10.580;2024-02-15T13:45:19;15.80;;;3.30;;
4278;SDS011;2153;47.744;10.580;2024-02-15T13:47:47;14.60;;;2.70;;
4278;SDS011;2153;47.744;10.580;2024-02-15T13:50:15;15.43;;;3.10;;
4278;SDS011;2153;47.744;10.580;2024-02-15T13:52:42;16.90;;;3.30;;
4278;SDS011;2153;47.744;10.580;2024-02-15T13:55:11;15.00;;;2.60;;
4278;SDS011;2153;47.744;10.580;2024-02-15T13:57:39;17.60;;;2.87;;
4278;SDS011;2153;47.744;10.580;2024-02-15T14:00:07;15.37;;;3.07;;
4278;SDS011;2153;47.744;10.580;2024-02-15T14:02:39;14.23;;;2.33;;
4278;SDS011;2153;47.744;10.580;2024-02-15T14:05:08;15.30;;;2.80;;
4278;SDS011;2153;47.744;10.580;2024-02-15T14:07:36;17.33;;;3.07;;
4278;SDS011;2153;47.744;10.580;2024-02-15T14:10:04;15.70;;;2.97;;
4278;SDS011;2153;47.744;10.580;2024-02-15T14:12:32;15.60;;;2.77;;
4278;SDS011;2153;47.744;10.580;2024-02-15T14:14:59;14.73;;;2.67;;
4278;SDS011;2153;47.744;10.580;2024-02-15T14:17:27;16.57;;;2.70;;
4278;SDS011;2153;47.744;10.580;2024-02-15T14:19:54;15.27;;;2.37;;
4278;SDS011;2153;47.744;10.580;2024-02-15T14:22:22;15.47;;;2.77;;
4278;SDS011;2153;47.744;10.580;2024-02-15T14:24:53;16.00;;;2.30;;
4278;SDS011;2153;47.744;10.580;2024-02-15T14:27:20;15.27;;;2.63;;
4278;SDS011;2153;47.744;10.580;2024-02-15T14:29:48;14.80;;;2.60;;
4278;SDS011;2153;47.744;10.580;2024-02-15T14:32:29;16.00;;;2.70;;
4278;SDS011;2153;47.744;10.580;2024-02-15T14:35:14;14.73;;;2.80;;
4278;SDS011;2153;47.744;10.580;2024-02-15T14:37:42;15.60;;;2.80;;
4278;SDS011;2153;47.744;10.580;2024-02-15T14:40:09;16.27;;;2.83;;
4278;SDS011;2153;47.744;10.580;2024-02-15T14:42:39;16.30;;;3.20;;
4278;SDS011;2153;47.744;10.580;2024-02-15T14:45:08;15.57;;;2.80;;
4278;SDS011;2153;47.744;10.580;2024-02-15T14:47:35;14.90;;;2.50;;
4278;SDS011;2153;47.744;10.580;2024-02-15T14:50:03;15.70;;;2.70;;
4278;SDS011;2153;47.744;10.580;2024-02-15T14:52:33;17.60;;;4.30;;
4278;SDS011;2153;47.744;10.580;2024-02-15T14:55:00;18.20;;;3.70;;
4278;SDS011;2153;47.744;10.580;2024-02-15T14:57:30;17.23;;;4.03;;
4278;SDS011;2153;47.744;10.580;2024-02-15T14:59:57;18.90;;;3.73;;
4278;SDS011;2153;47.744;10.580;2024-02-15T15:02:25;20.23;;;4.33;;
4278;SDS011;2153;47.744;10.580;2024-02-15T15:04:52;15.97;;;3.30;;
4278;SDS011;2153;47.744;10.580;2024-02-15T15:07:39;16.20;;;3.50;;
4278;SDS011;2153;47.744;10.580;2024-02-15T15:10:24;21.50;;;8.17;;
4278;SDS011;2153;47.744;10.580;2024-02-15T15:13:08;19.80;;;5.70;;
4278;SDS011;2153;47.744;10.580;2024-02-15T15:15:35;15.40;;;3.60;;
4278;SDS011;2153;47.744;10.580;2024-02-15T15:18:06;15.73;;;2.80;;
4278;SDS011;2153;47.744;10.580;2024-02-15T15:20:34;16.47;;;3.33;;
4278;SDS011;2153;47.744;10.580;2024-02-15T15:23:02;15.93;;;3.23;;
4278;SDS011;2153;47.744;10.580;2024-02-15T15:25:29;20.83;;;3.13;;
4278;SDS011;2153;47.744;10.580;2024-02-15T15:27:56;15.00;;;2.80;;
4278;SDS011;2153;47.744;10.580;2024-02-15T15:30:23;16.97;;;2.77;;
4278;SDS011;2153;47.744;10.580;2024-02-15T15:32:50;16.17;;;2.70;;
4278;SDS011;2153;47.744;10.580;2024-02-15T15:35:19;19.50;;;3.03;;
4278;SDS011;2153;47.744;10.580;2024-02-15T15:37:47;20.80;;;2.70;;
4278;SDS011;2153;47.744;10.580;2024-02-15T15:40:15;17.73;;;3.07;;
4278;SDS011;2153;47.744;10.580;2024-02-15T15:42:42;16.13;;;2.33;;
4278;SDS011;2153;47.744;10.580;2024-02-15T15:45:10;20.00;;;2.50;;
4278;SDS011;2153;47.744;10.580;2024-02-15T15:47:38;14.60;;;2.53;;
4278;SDS011;2153;47.744;10.580;2024-02-15T15:50:05;14.83;;;2.53;;
4278;SDS011;2153;47.744;10.580;2024-02-15T15:52:34;16.00;;;2.70;;
4278;SDS011;2153;47.744;10.580;2024-02-15T15:55:03;20.30;;;2.67;;
4278;SDS011;2153;47.744;10.580;2024-02-15T15:57:35;16.27;;;3.17;;
4278;SDS011;2153;47.744;10.580;2024-02-15T16:00:04;15.83;;;2.50;;
4278;SDS011;2153;47.744;10.580;2024-02-15T16:02:31;16.93;;;2.90;;
4278;SDS011;2153;47.744;10.580;2024-02-15T16:04:58;15.57;;;2.47;;
4278;SDS011;2153;47.744;10.580;2024-02-15T16:07:25;15.10;;;2.20;;
4278;SDS011;2153;47.744;10.580;2024-02-15T16:09:53;15.47;;;2.57;;
4278;SDS011;2153;47.744;10.580;2024-02-15T16:12:21;15.57;;;2.37;;
4278;SDS011;2153;47.744;10.580;2024-02-15T16:14:48;16.90;;;3.00;;
4278;SDS011;2153;47.744;10.580;2024-02-15T16:17:15;18.33;;;2.90;;
4278;SDS011;2153;47.744;10.580;2024-02-15T16:19:42;18.20;;;3.30;;
4278;SDS011;2153;47.744;10.580;2024-02-15T16:22:10;14.70;;;2.90;;
4278;SDS011;2153;47.744;10.580;2024-02-15T16:24:37;18.90;;;2.87;;
4278;SDS011;2153;47.744;10.580;2024-02-15T16:27:05;15.30;;;2.80;;
4278;SDS011;2153;47.744;10.580;2024-02-15T16:29:32;15.23;;;2.80;;
4278;SDS011;2153;47.744;10.580;2024-02-15T16:31:59;15.57;;;2.30;;
4278;SDS011;2153;47.744;10.580;2024-02-15T16:34:27;15.17;;;2.50;;
4278;SDS011;2153;47.744;10.580;2024-02-15T16:36:54;14.27;;;2.50;;
4278;SDS011;2153;47.744;10.580;2024-02-15T16:39:21;13.63;;;2.17;;
4278;SDS011;2153;47.744;10.580;2024-02-15T16:41:48;24.63;;;2.93;;
4278;SDS011;2153;47.744;10.580;2024-02-15T16:44:17;13.93;;;2.50;;
4278;SDS011;2153;47.744;10.580;2024-02-15T16:46:44;13.70;;;2.67;;